createdAt,value
2019-02-08T00:00:48.523Z,94.60
2019-02-08T00:03:16.674Z,94.60
2019-02-08T00:05:44.847Z,94.60
2019-02-08T00:08:13.030Z,94.60
2019-02-08T00:10:41.480Z,94.60
2019-02-08T00:13:09.669Z,94.40
2019-02-08T00:15:38.327Z,94.60
2019-02-08T00:18:06.555Z,94.50
2019-02-08T00:20:35.109Z,94.50
2019-02-08T00:23:03.303Z,94.50
2019-02-08T00:25:31.888Z,94.50
2019-02-08T00:28:00.051Z,94.40
2019-02-08T00:30:28.241Z,94.30
2019-02-08T00:32:56.386Z,94.40
2019-02-08T00:35:24.576Z,94.40
2019-02-08T00:37:53.126Z,94.60
2019-02-08T00:40:21.323Z,94.70
2019-02-08T00:42:49.821Z,94.70
2019-02-08T00:45:18.362Z,94.60
2019-02-08T00:47:46.559Z,94.60
2019-02-08T00:50:16.974Z,94.60
2019-02-08T00:52:45.110Z,94.60
2019-02-08T00:55:13.824Z,94.50
2019-02-08T00:57:43.339Z,94.50
2019-02-08T01:00:11.677Z,94.40
2019-02-08T01:02:40.853Z,94.40
2019-02-08T01:05:10.761Z,94.30
2019-02-08T01:07:39.321Z,94.60
2019-02-08T01:10:10.453Z,94.30
2019-02-08T01:12:38.638Z,94.30
2019-02-08T01:15:07.706Z,94.30
2019-02-08T01:17:35.903Z,94.30
2019-02-08T01:20:05.513Z,94.20
2019-02-08T01:22:33.673Z,94.20
2019-02-08T01:25:01.877Z,94.10
2019-02-08T01:27:30.302Z,94.10
2019-02-08T01:29:58.507Z,94.10
2019-02-08T01:32:26.676Z,94.00
2019-02-08T01:34:56.203Z,94.30
2019-02-08T01:37:24.360Z,94.50
2019-02-08T01:39:53.558Z,94.70
2019-02-08T01:42:21.731Z,94.60
2019-02-08T01:44:49.896Z,94.20
2019-02-08T01:47:18.377Z,94.60
2019-02-08T01:49:46.843Z,94.50
2019-02-08T01:52:15.428Z,94.30
2019-02-08T01:54:43.535Z,94.40
2019-02-08T01:57:12.437Z,94.70
2019-02-08T01:59:40.597Z,94.40
2019-02-08T02:02:08.761Z,94.30
2019-02-08T02:04:37.279Z,94.00
2019-02-08T02:07:05.677Z,94.10
2019-02-08T02:09:33.905Z,94.10
2019-02-08T02:12:02.064Z,93.90
2019-02-08T02:14:30.522Z,94.10
2019-02-08T02:17:00.655Z,94.00
2019-02-08T02:19:29.323Z,93.90
2019-02-08T02:21:57.783Z,93.90
2019-02-08T02:24:26.011Z,93.80
2019-02-08T02:26:54.178Z,93.80
2019-02-08T02:29:22.646Z,93.80
2019-02-08T02:31:50.819Z,93.80
2019-02-08T02:34:18.995Z,93.80
2019-02-08T02:36:47.168Z,93.80
2019-02-08T02:39:15.361Z,93.70
2019-02-08T02:42:09.507Z,93.70
2019-02-08T02:44:36.090Z,93.70
2019-02-08T02:47:04.293Z,93.70
2019-02-08T02:49:32.801Z,93.70
2019-02-08T02:52:00.993Z,93.80
2019-02-08T02:54:29.173Z,93.90
2019-02-08T02:56:57.290Z,94.00
2019-02-08T02:59:25.422Z,94.10
2019-02-08T03:01:53.601Z,94.10
2019-02-08T03:04:21.759Z,94.00
2019-02-08T03:06:50.261Z,94.10
2019-02-08T03:09:18.667Z,94.20
2019-02-08T03:11:46.788Z,94.10
2019-02-08T03:14:14.966Z,94.10
2019-02-08T03:16:43.148Z,94.00
2019-02-08T03:19:12.612Z,94.00
2019-02-08T03:21:40.818Z,93.90
2019-02-08T03:24:13.008Z,93.90
2019-02-08T03:26:37.465Z,93.80
2019-02-08T03:29:06.670Z,93.70
2019-02-08T03:31:35.232Z,93.60
2019-02-08T03:34:03.416Z,93.90
2019-02-08T03:36:32.326Z,94.10
2019-02-08T03:39:00.789Z,94.10
2019-02-08T03:41:29.195Z,94.10
2019-02-08T03:43:57.349Z,94.10
2019-02-08T03:46:25.575Z,94.00
2019-02-08T03:48:53.693Z,94.00
2019-02-08T03:51:21.869Z,94.10
2019-02-08T03:53:50.032Z,94.20
2019-02-08T03:56:18.590Z,94.10
2019-02-08T03:58:48.971Z,94.10
2019-02-08T04:01:18.174Z,94.40
2019-02-08T04:03:46.649Z,94.30
2019-02-08T04:06:14.807Z,94.40
2019-02-08T04:08:43.018Z,94.40
2019-02-08T04:11:11.124Z,94.50
2019-02-08T04:13:39.589Z,94.50
2019-02-08T04:16:07.818Z,94.50
2019-02-08T04:18:35.965Z,94.50
2019-02-08T04:21:04.149Z,94.50
2019-02-08T04:23:32.325Z,94.50
2019-02-08T04:26:01.518Z,94.20
2019-02-08T04:28:29.950Z,94.10
2019-02-08T04:31:07.282Z,94.10
2019-02-08T04:33:36.470Z,94.10
2019-02-08T04:36:04.942Z,94.00
2019-02-08T04:38:33.127Z,94.10
2019-02-08T04:41:01.313Z,94.10
2019-02-08T04:43:29.855Z,94.80
2019-02-08T04:45:58.351Z,95.10
2019-02-08T04:48:26.572Z,94.80
2019-02-08T04:50:54.981Z,94.40
2019-02-08T04:53:23.218Z,94.20
2019-02-08T04:55:51.659Z,94.70
2019-02-08T04:58:19.898Z,94.80
2019-02-08T05:00:48.033Z,94.60
2019-02-08T05:03:16.588Z,94.50
2019-02-08T05:05:45.446Z,94.40
2019-02-08T05:08:32.995Z,94.50
2019-02-08T05:11:01.198Z,94.40
2019-02-08T05:13:29.763Z,94.50
2019-02-08T05:15:57.954Z,94.50
2019-02-08T05:18:26.129Z,94.40
2019-02-08T05:20:54.318Z,94.30
2019-02-08T05:23:22.470Z,94.30
2019-02-08T05:25:50.647Z,94.40
2019-02-08T05:28:19.122Z,94.30
2019-02-08T05:30:47.708Z,94.50
2019-02-08T05:33:16.002Z,94.50
2019-02-08T05:35:44.158Z,94.60
2019-02-08T05:38:13.050Z,95.00
2019-02-08T05:40:41.576Z,95.20
2019-02-08T05:43:10.418Z,95.40
2019-02-08T05:45:38.590Z,95.50
2019-02-08T05:48:06.777Z,95.50
2019-02-08T05:50:34.932Z,95.30
2019-02-08T05:53:03.520Z,95.10
2019-02-08T05:55:31.693Z,94.90
2019-02-08T05:58:00.159Z,94.80
2019-02-08T06:00:36.259Z,94.80
2019-02-08T06:03:04.730Z,94.80
2019-02-08T06:05:33.912Z,94.80
2019-02-08T06:08:02.090Z,94.80
2019-02-08T06:10:30.262Z,94.80
2019-02-08T06:12:58.827Z,94.90
2019-02-08T06:15:27.304Z,95.00
2019-02-08T06:17:55.763Z,95.00
2019-02-08T06:20:24.012Z,95.00
2019-02-08T06:22:52.150Z,94.90
2019-02-08T06:25:20.505Z,94.80
2019-02-08T06:27:48.785Z,94.70
2019-02-08T06:30:18.866Z,94.80
2019-02-08T06:32:47.097Z,94.90
2019-02-08T06:35:16.735Z,94.70
2019-02-08T06:37:45.203Z,94.70
2019-02-08T06:40:15.401Z,94.80
2019-02-08T06:42:44.258Z,94.70
2019-02-08T06:45:14.444Z,94.70
2019-02-08T06:47:42.597Z,94.70
2019-02-08T06:50:12.278Z,94.60
2019-02-08T06:52:40.462Z,94.50
2019-02-08T06:55:10.854Z,94.50
2019-02-08T06:57:43.982Z,94.40
2019-02-08T07:00:22.260Z,94.50
2019-02-08T07:03:12.889Z,94.40
2019-02-08T07:05:51.049Z,94.30
2019-02-08T07:08:29.345Z,94.50
2019-02-08T07:11:22.567Z,94.50
2019-02-08T07:14:08.339Z,94.40
2019-02-08T07:16:52.740Z,94.20
2019-02-08T07:19:46.308Z,94.20
2019-02-08T07:22:37.040Z,94.50
2019-02-08T07:25:25.682Z,94.50
2019-02-08T07:28:16.010Z,94.20
2019-02-08T07:31:04.334Z,94.20
2019-02-08T07:33:50.978Z,94.40
2019-02-08T07:36:38.696Z,94.40
2019-02-08T07:39:25.069Z,94.30
2019-02-08T07:42:02.638Z,94.20
2019-02-08T07:44:39.198Z,94.10
2019-02-08T07:47:25.344Z,94.30
2019-02-08T07:50:12.741Z,94.10
2019-02-08T07:52:59.664Z,93.80
2019-02-08T07:55:53.132Z,93.70
2019-02-08T07:58:52.325Z,93.70
2019-02-08T08:01:35.433Z,93.60
2019-02-08T08:04:19.120Z,93.60
2019-02-08T08:07:15.378Z,93.60
2019-02-08T08:09:50.038Z,93.20
2019-02-08T08:12:32.394Z,92.90
2019-02-08T08:15:10.024Z,93.50
2019-02-08T08:17:59.951Z,93.40
2019-02-08T08:20:44.659Z,92.70
2019-02-08T08:23:29.152Z,91.30
2019-02-08T08:26:18.792Z,90.70
2019-02-08T08:29:18.290Z,90.40
2019-02-08T08:31:53.853Z,89.80
2019-02-08T08:34:52.453Z,87.90
2019-02-08T08:37:51.499Z,87.40
2019-02-08T08:41:04.786Z,85.50
2019-02-08T08:44:14.689Z,83.60
2019-02-08T08:47:26.853Z,82.50
2019-02-08T08:50:22.593Z,80.00
2019-02-08T08:53:29.680Z,80.40
2019-02-08T08:56:12.741Z,80.10
2019-02-08T08:59:14.166Z,80.20
2019-02-08T09:02:18.352Z,80.90
2019-02-08T09:05:19.483Z,81.60
2019-02-08T09:08:30.200Z,83.60
2019-02-08T09:11:49.377Z,84.30
2019-02-08T09:15:01.177Z,85.60
2019-02-08T09:17:53.625Z,85.10
2019-02-08T09:21:00.577Z,85.20
2019-02-08T09:24:23.818Z,85.00
2019-02-08T09:27:39.099Z,84.30
2019-02-08T09:30:28.729Z,85.00
2019-02-08T09:33:47.864Z,84.30
2019-02-08T09:36:58.751Z,84.40
2019-02-08T09:40:26.112Z,85.10
2019-02-08T09:43:56.986Z,84.60
2019-02-08T09:46:51.649Z,82.00
2019-02-08T09:49:57.095Z,82.80
2019-02-08T09:53:01.389Z,79.90
2019-02-08T09:56:02.462Z,79.00
2019-02-08T09:59:08.049Z,80.20
2019-02-08T10:02:27.269Z,80.00
2019-02-08T10:05:39.021Z,80.70
2019-02-08T10:08:32.582Z,77.60
2019-02-08T10:11:45.584Z,73.70
2019-02-08T10:14:40.021Z,70.50
2019-02-08T10:17:51.890Z,66.70
2019-02-08T10:20:58.296Z,65.60
2019-02-08T10:24:00.602Z,64.10
2019-02-08T10:27:15.302Z,62.70
2019-02-08T10:30:29.011Z,61.30
2019-02-08T10:33:52.374Z,62.50
2019-02-08T10:37:26.498Z,59.30
2019-02-08T10:40:29.671Z,59.20
2019-02-08T10:43:29.808Z,58.70
2019-02-08T10:46:44.571Z,59.50
2019-02-08T10:49:38.451Z,58.80
2019-02-08T10:52:53.176Z,58.30
2019-02-08T10:55:47.700Z,58.60
2019-02-08T10:58:53.318Z,57.70
2019-02-08T11:02:05.454Z,58.30
2019-02-08T11:05:24.596Z,58.20
2019-02-08T11:08:34.594Z,57.10
2019-02-08T11:11:36.668Z,56.80
2019-02-08T11:14:41.794Z,57.40
2019-02-08T11:18:10.095Z,58.70
2019-02-08T11:20:39.026Z,58.60
2019-02-08T11:23:07.135Z,60.90
2019-02-08T11:25:35.275Z,59.00
2019-02-08T11:28:03.491Z,59.30
2019-02-08T11:30:31.657Z,58.80
2019-02-08T11:32:59.841Z,59.80
2019-02-08T11:35:28.284Z,59.90
2019-02-08T11:37:57.123Z,60.00
2019-02-08T11:40:26.202Z,60.10
2019-02-08T11:42:54.696Z,60.80
2019-02-08T11:45:23.957Z,61.60
2019-02-08T11:47:52.158Z,61.10
2019-02-08T11:50:21.502Z,61.00
2019-02-08T11:52:51.677Z,60.50
2019-02-08T11:55:19.842Z,59.60
2019-02-08T11:57:59.792Z,60.50
2019-02-08T12:00:40.100Z,58.50
2019-02-08T12:03:08.343Z,60.50
2019-02-08T12:05:36.497Z,60.80
2019-02-08T12:08:04.965Z,61.60
2019-02-08T12:10:33.165Z,63.80
2019-02-08T12:13:01.339Z,64.80
2019-02-08T12:15:29.495Z,64.20
2019-02-08T12:17:57.675Z,63.00
2019-02-08T12:20:25.849Z,63.30
2019-02-08T12:22:54.015Z,62.80
2019-02-08T12:25:22.244Z,63.30
2019-02-08T12:27:50.404Z,64.00
2019-02-08T12:30:22.222Z,64.20
2019-02-08T12:32:51.407Z,63.70
2019-02-08T12:35:19.592Z,64.70
2019-02-08T12:37:47.771Z,65.40
2019-02-08T12:40:16.608Z,64.50
2019-02-08T12:42:45.061Z,65.20
2019-02-08T12:45:13.356Z,65.00
2019-02-08T12:47:41.796Z,65.00
2019-02-08T12:50:11.092Z,65.40
2019-02-08T12:52:39.289Z,66.20
2019-02-08T12:55:08.640Z,64.10
2019-02-08T12:57:38.817Z,64.40
2019-02-08T13:00:10.189Z,64.80
2019-02-08T13:02:38.308Z,65.10
2019-02-08T13:05:07.696Z,64.40
2019-02-08T13:07:36.155Z,64.10
2019-02-08T13:10:06.202Z,64.20
2019-02-08T13:12:34.436Z,63.70
2019-02-08T13:15:02.656Z,63.90
2019-02-08T13:17:31.835Z,64.30
2019-02-08T13:20:00.231Z,64.40
2019-02-08T13:22:34.145Z,62.60
2019-02-08T13:25:03.427Z,60.00
2019-02-08T13:27:32.238Z,58.40
2019-02-08T13:30:00.542Z,58.50
2019-02-08T13:32:28.697Z,58.30
2019-02-08T13:34:56.855Z,58.10
2019-02-08T13:37:25.041Z,58.10
2019-02-08T13:39:53.201Z,59.10
2019-02-08T13:42:23.430Z,58.10
2019-02-08T13:44:51.988Z,58.30
2019-02-08T13:47:20.192Z,58.90
2019-02-08T13:49:48.784Z,59.30
2019-02-08T13:52:16.929Z,59.50
2019-02-08T13:54:45.103Z,58.80
2019-02-08T13:57:13.291Z,57.80
2019-02-08T13:59:41.483Z,57.20
2019-02-08T14:02:09.639Z,57.00
2019-02-08T14:04:38.739Z,56.90
2019-02-08T14:07:08.177Z,58.00
2019-02-08T14:09:36.729Z,57.00
2019-02-08T14:12:05.287Z,55.90
2019-02-08T14:14:34.494Z,56.20
2019-02-08T14:17:02.665Z,55.40
2019-02-08T14:19:30.829Z,55.00
2019-02-08T14:21:59.015Z,55.20
2019-02-08T14:24:27.267Z,55.70
2019-02-08T14:26:55.491Z,56.70
2019-02-08T14:29:23.627Z,56.70
2019-02-08T14:31:53.074Z,57.30
2019-02-08T14:34:20.244Z,57.10
2019-02-08T14:36:49.712Z,57.00
2019-02-08T14:39:17.856Z,57.40
2019-02-08T14:41:46.034Z,57.70
2019-02-08T14:44:14.199Z,57.50
2019-02-08T14:46:43.437Z,57.90
2019-02-08T14:49:11.582Z,58.60
2019-02-08T14:51:39.788Z,58.80
2019-02-08T14:54:07.935Z,59.50
2019-02-08T14:56:36.104Z,61.00
2019-02-08T14:59:04.266Z,62.20
2019-02-08T15:01:36.705Z,63.00
2019-02-08T15:04:04.955Z,64.00
2019-02-08T15:06:33.093Z,63.60
2019-02-08T15:09:01.258Z,64.00
2019-02-08T15:11:30.456Z,64.90
2019-02-08T15:13:58.662Z,65.60
2019-02-08T15:16:26.817Z,69.60
2019-02-08T15:18:55.290Z,71.10
2019-02-08T15:21:23.851Z,66.10
2019-02-08T15:23:52.068Z,66.60
2019-02-08T15:26:20.266Z,67.50
2019-02-08T15:28:48.404Z,68.20
2019-02-08T15:31:16.562Z,68.60
2019-02-08T15:33:44.748Z,69.10
2019-02-08T15:36:12.909Z,69.50
2019-02-08T15:38:41.392Z,69.80
2019-02-08T15:41:10.371Z,70.20
2019-02-08T15:43:38.572Z,70.30
2019-02-08T15:46:06.885Z,70.40
2019-02-08T15:48:35.124Z,70.80
2019-02-08T15:51:03.288Z,71.00
2019-02-08T15:53:33.770Z,71.10
2019-02-08T15:56:15.609Z,71.20
2019-02-08T15:58:49.616Z,71.50
2019-02-08T16:01:17.827Z,71.80
2019-02-08T16:03:45.971Z,72.00
2019-02-08T16:06:14.141Z,72.40
2019-02-08T16:08:42.333Z,72.80
2019-02-08T16:11:10.772Z,72.80
2019-02-08T16:13:39.282Z,73.20
2019-02-08T16:16:07.744Z,73.20
2019-02-08T16:18:36.240Z,73.50
2019-02-08T16:21:04.811Z,73.80
2019-02-08T16:23:34.110Z,74.10
2019-02-08T16:26:02.308Z,74.50
2019-02-08T16:28:30.872Z,74.90
2019-02-08T16:30:59.247Z,75.20
2019-02-08T16:33:27.428Z,75.30
2019-02-08T16:35:55.923Z,75.40
2019-02-08T16:38:24.135Z,75.70
2019-02-08T16:40:53.573Z,75.80
2019-02-08T16:43:21.783Z,75.90
2019-02-08T16:45:49.965Z,76.80
2019-02-08T16:48:18.097Z,77.10
2019-02-08T16:50:46.548Z,77.10
2019-02-08T16:53:15.024Z,77.50
2019-02-08T16:55:44.454Z,78.30
2019-02-08T16:58:12.640Z,79.10
2019-02-08T17:00:41.853Z,80.10
2019-02-08T17:03:12.038Z,80.80
2019-02-08T17:05:40.267Z,81.40
2019-02-08T17:08:08.673Z,81.20
2019-02-08T17:10:37.220Z,82.20
2019-02-08T17:13:05.847Z,81.90
2019-02-08T17:15:34.149Z,81.90
2019-02-08T17:18:03.344Z,82.20
2019-02-08T17:20:36.540Z,82.40
2019-02-08T17:23:04.949Z,83.10
2019-02-08T17:25:33.397Z,83.50
2019-02-08T17:28:01.706Z,84.10
2019-02-08T17:30:30.253Z,83.50
2019-02-08T17:32:58.436Z,84.00
2019-02-08T17:35:26.722Z,83.70
2019-02-08T17:37:55.916Z,83.80
2019-02-08T17:40:26.293Z,83.50
2019-02-08T17:42:54.399Z,83.60
2019-02-08T17:45:23.218Z,83.70
2019-02-08T17:47:51.417Z,83.80
2019-02-08T17:50:23.738Z,84.50
2019-02-08T17:52:52.213Z,84.20
2019-02-08T17:55:21.640Z,83.70
2019-02-08T17:57:49.854Z,83.60
2019-02-08T18:00:21.840Z,83.30
2019-02-08T18:02:50.041Z,83.20
2019-02-08T18:05:18.188Z,83.00
2019-02-08T18:07:46.403Z,83.00
2019-02-08T18:10:17.379Z,82.70
2019-02-08T18:12:46.882Z,82.60
2019-02-08T18:15:17.333Z,82.50
2019-02-08T18:17:45.900Z,83.30
2019-02-08T18:20:23.249Z,83.40
2019-02-08T18:22:51.413Z,83.20
2019-02-08T18:25:20.045Z,83.20
2019-02-08T18:27:48.268Z,83.10
2019-02-08T18:30:19.496Z,83.10
2019-02-08T18:32:47.041Z,83.20
2019-02-08T18:35:15.502Z,83.30
2019-02-08T18:37:44.036Z,83.50
2019-02-08T18:40:14.220Z,83.50
2019-02-08T18:42:42.817Z,83.60
2019-02-08T18:45:14.255Z,83.50
2019-02-08T18:47:42.440Z,83.50
2019-02-08T18:50:15.428Z,83.80
2019-02-08T18:52:43.627Z,84.00
2019-02-08T18:55:12.020Z,83.60
2019-02-08T18:57:40.172Z,83.70
2019-02-08T19:00:12.424Z,83.80
2019-02-08T19:02:40.670Z,83.70
2019-02-08T19:05:09.692Z,83.60
2019-02-08T19:07:37.891Z,83.70
2019-02-08T19:10:08.155Z,83.70
2019-02-08T19:12:36.256Z,83.70
2019-02-08T19:15:05.865Z,83.70
2019-02-08T19:17:34.069Z,83.70
2019-02-08T19:20:03.034Z,83.80
2019-02-08T19:22:31.202Z,84.00
2019-02-08T19:24:59.718Z,84.00
2019-02-08T19:27:27.828Z,83.90
2019-02-08T19:29:56.042Z,84.10
2019-02-08T19:32:24.247Z,84.10
2019-02-08T19:34:52.394Z,84.20
2019-02-08T19:37:20.528Z,84.20
2019-02-08T19:39:49.138Z,84.20
2019-02-08T19:42:18.831Z,84.20
2019-02-08T19:44:47.319Z,84.30
2019-02-08T19:47:17.739Z,84.40
2019-02-08T19:49:45.933Z,84.50
2019-02-08T19:52:15.130Z,84.50
2019-02-08T19:54:43.561Z,84.50
2019-02-08T19:57:12.237Z,84.60
2019-02-08T19:59:40.374Z,84.40
2019-02-08T20:02:09.564Z,84.30
2019-02-08T20:04:37.737Z,84.20
2019-02-08T20:07:10.204Z,84.00
2019-02-08T20:09:38.686Z,83.90
2019-02-08T20:12:06.862Z,83.90
2019-02-08T20:14:35.045Z,83.90
2019-02-08T20:17:03.216Z,83.90
2019-02-08T20:19:32.412Z,83.80
2019-02-08T20:22:00.592Z,83.70
2019-02-08T20:24:28.760Z,83.50
2019-02-08T20:26:56.934Z,83.50
2019-02-08T20:29:25.366Z,83.50
2019-02-08T20:31:53.606Z,83.40
2019-02-08T20:34:23.273Z,83.50
2019-02-08T20:36:52.480Z,83.60
2019-02-08T20:39:21.008Z,83.50
2019-02-08T20:41:49.147Z,83.60
2019-02-08T20:44:17.361Z,83.70
2019-02-08T20:46:45.499Z,83.60
2019-02-08T20:49:14.679Z,83.70
2019-02-08T20:51:42.863Z,83.60
2019-02-08T20:54:11.065Z,83.50
2019-02-08T20:56:39.583Z,83.50
2019-02-08T20:59:08.158Z,83.60
2019-02-08T21:01:36.649Z,83.40
2019-02-08T21:04:04.973Z,83.40
2019-02-08T21:06:33.417Z,83.40
2019-02-08T21:09:01.606Z,83.20
2019-02-08T21:11:31.092Z,83.10
2019-02-08T21:13:59.575Z,82.90
2019-02-08T21:16:28.721Z,82.80
2019-02-08T21:19:01.061Z,82.60
2019-02-08T21:21:29.283Z,82.70
2019-02-08T21:23:57.681Z,82.60
2019-02-08T21:26:26.211Z,82.50
2019-02-08T21:28:58.078Z,82.60
2019-02-08T21:31:22.829Z,82.50
2019-02-08T21:33:51.344Z,82.40
2019-02-08T21:36:20.608Z,82.20
2019-02-08T21:38:48.794Z,82.00
2019-02-08T21:41:16.989Z,81.80
2019-02-08T21:43:45.529Z,81.70
2019-02-08T21:46:14.429Z,81.50
2019-02-08T21:48:42.623Z,81.40
2019-02-08T21:51:10.775Z,81.40
2019-02-08T21:53:39.359Z,81.70
2019-02-08T21:56:07.559Z,82.40
2019-02-08T21:58:35.995Z,82.90
2019-02-08T22:01:04.505Z,83.10
2019-02-08T22:03:32.694Z,83.20
2019-02-08T22:06:02.819Z,83.20
2019-02-08T22:08:32.003Z,83.20
2019-02-08T22:11:00.546Z,83.40
2019-02-08T22:13:29.687Z,83.50
2019-02-08T22:15:58.929Z,83.90
2019-02-08T22:18:27.440Z,84.40
2019-02-08T22:20:55.635Z,84.60
2019-02-08T22:23:23.804Z,84.70
2019-02-08T22:25:52.347Z,84.60
2019-02-08T22:28:20.965Z,84.30
2019-02-08T22:30:49.516Z,84.00
2019-02-08T22:33:17.721Z,83.20
2019-02-08T22:35:45.853Z,82.80
2019-02-08T22:38:15.019Z,82.70
2019-02-08T22:40:43.168Z,82.60
2019-02-08T22:43:12.031Z,82.40
2019-02-08T22:45:42.218Z,82.20
2019-02-08T22:48:11.437Z,82.00
2019-02-08T22:50:39.543Z,82.00
2019-02-08T22:53:09.293Z,81.90
2019-02-08T22:55:37.466Z,81.90
2019-02-08T22:58:06.335Z,81.70
2019-02-08T23:01:11.022Z,81.50
2019-02-08T23:03:39.880Z,81.40
2019-02-08T23:06:08.248Z,81.40
2019-02-08T23:08:36.800Z,82.10
2019-02-08T23:11:05.209Z,81.50
2019-02-08T23:13:33.364Z,82.50
2019-02-08T23:16:02.019Z,82.90
2019-02-08T23:18:31.750Z,83.00
2019-02-08T23:21:00.245Z,83.60
2019-02-08T23:23:42.779Z,84.00
2019-02-08T23:26:14.397Z,84.10
2019-02-08T23:28:42.996Z,84.00
2019-02-08T23:31:11.156Z,84.10
2019-02-08T23:33:39.326Z,84.20
2019-02-08T23:36:15.812Z,84.50
2019-02-08T23:38:50.848Z,84.40
2019-02-08T23:41:19.017Z,84.70
2019-02-08T23:43:47.548Z,84.80
2019-02-08T23:46:15.776Z,85.20
2019-02-08T23:48:43.932Z,85.80
2019-02-08T23:51:12.114Z,85.70
2019-02-08T23:53:40.273Z,85.50
2019-02-08T23:56:08.849Z,84.90
2019-02-08T23:58:37.038Z,84.30
